sensor_id;sensor_type;location;lat;lon;timestamp;P1;durP1;ratioP1;P2;durP2;ratioP2
55254;SDS011;41118;44.634;11.182;2022-11-23T00:01:15;1.48;;;0.35;;
55254;SDS011;41118;44.634;11.182;2022-11-23T00:03:42;2.58;;;0.60;;
55254;SDS011;41118;44.634;11.182;2022-11-23T00:06:08;0.70;;;0.20;;
55254;SDS011;41118;44.634;11.182;2022-11-23T00:08:34;1.85;;;0.10;;
55254;SDS011;41118;44.634;11.182;2022-11-23T00:11:00;1.27;;;0.25;;
55254;SDS011;41118;44.634;11.182;2022-11-23T00:13:26;1.65;;;0.20;;
55254;SDS011;41118;44.634;11.182;2022-11-23T00:15:52;1.65;;;0.13;;
55254;SDS011;41118;44.634;11.182;2022-11-23T00:18:19;0.70;;;0.17;;
55254;SDS011;41118;44.634;11.182;2022-11-23T00:20:45;0.32;;;0.10;;
55254;SDS011;41118;44.634;11.182;2022-11-23T00:23:11;0.60;;;0.22;;
55254;SDS011;41118;44.634;11.182;2022-11-23T00:25:37;1.65;;;0.20;;
55254;SDS011;41118;44.634;11.182;2022-11-23T00:28:04;0.63;;;0.10;;
55254;SDS011;41118;44.634;11.182;2022-11-23T00:30:30;1.95;;;0.20;;
55254;SDS011;41118;44.634;11.182;2022-11-23T00:32:57;0.47;;;0.10;;
55254;SDS011;41118;44.634;11.182;2022-11-23T00:35:23;0.55;;;0.17;;
55254;SDS011;41118;44.634;11.182;2022-11-23T00:37:49;2.78;;;0.20;;
55254;SDS011;41118;44.634;11.182;2022-11-23T00:40:15;0.52;;;0.20;;
55254;SDS011;41118;44.634;11.182;2022-11-23T00:42:41;1.05;;;0.30;;
55254;SDS011;41118;44.634;11.182;2022-11-23T00:45:07;1.00;;;0.30;;
55254;SDS011;41118;44.634;11.182;2022-11-23T00:47:33;0.57;;;0.10;;
55254;SDS011;41118;44.634;11.182;2022-11-23T00:49:59;2.92;;;0.43;;
55254;SDS011;41118;44.634;11.182;2022-11-23T00:52:25;0.50;;;0.13;;
55254;SDS011;41118;44.634;11.182;2022-11-23T00:54:51;0.80;;;0.22;;
55254;SDS011;41118;44.634;11.182;2022-11-23T00:57:17;0.40;;;0.10;;
55254;SDS011;41118;44.634;11.182;2022-11-23T00:59:43;0.77;;;0.13;;
55254;SDS011;41118;44.634;11.182;2022-11-23T01:02:10;0.68;;;0.15;;
55254;SDS011;41118;44.634;11.182;2022-11-23T01:04:39;0.68;;;0.17;;
55254;SDS011;41118;44.634;11.182;2022-11-23T01:07:05;0.80;;;0.20;;
55254;SDS011;41118;44.634;11.182;2022-11-23T01:09:31;0.77;;;0.20;;
55254;SDS011;41118;44.634;11.182;2022-11-23T01:11:58;1.17;;;0.20;;
55254;SDS011;41118;44.634;11.182;2022-11-23T01:14:24;0.45;;;0.20;;
55254;SDS011;41118;44.634;11.182;2022-11-23T01:16:51;0.40;;;0.10;;
55254;SDS011;41118;44.634;11.182;2022-11-23T01:19:17;0.63;;;0.10;;
55254;SDS011;41118;44.634;11.182;2022-11-23T01:21:44;0.63;;;0.17;;
55254;SDS011;41118;44.634;11.182;2022-11-23T01:24:15;1.08;;;0.10;;
55254;SDS011;41118;44.634;11.182;2022-11-23T01:26:42;0.90;;;0.57;;
55254;SDS011;41118;44.634;11.182;2022-11-23T01:29:08;0.40;;;0.10;;
55254;SDS011;41118;44.634;11.182;2022-11-23T01:31:34;1.13;;;0.20;;
55254;SDS011;41118;44.634;11.182;2022-11-23T01:34:01;5.00;;;0.20;;
55254;SDS011;41118;44.634;11.182;2022-11-23T01:36:28;1.15;;;0.35;;
55254;SDS011;41118;44.634;11.182;2022-11-23T01:38:54;4.03;;;0.13;;
55254;SDS011;41118;44.634;11.182;2022-11-23T01:41:22;0.70;;;0.20;;
55254;SDS011;41118;44.634;11.182;2022-11-23T01:43:48;0.50;;;0.10;;
55254;SDS011;41118;44.634;11.182;2022-11-23T01:46:15;1.15;;;0.17;;
55254;SDS011;41118;44.634;11.182;2022-11-23T01:48:42;4.53;;;0.15;;
55254;SDS011;41118;44.634;11.182;2022-11-23T01:51:43;0.85;;;0.10;;
55254;SDS011;41118;44.634;11.182;2022-11-23T01:54:03;0.93;;;0.65;;
55254;SDS011;41118;44.634;11.182;2022-11-23T01:56:33;2.63;;;0.30;;
55254;SDS011;41118;44.634;11.182;2022-11-23T01:59:01;0.63;;;0.10;;
55254;SDS011;41118;44.634;11.182;2022-11-23T02:01:27;0.55;;;0.15;;
55254;SDS011;41118;44.634;11.182;2022-11-23T02:03:54;2.78;;;0.10;;
55254;SDS011;41118;44.634;11.182;2022-11-23T02:06:21;1.25;;;0.10;;
55254;SDS011;41118;44.634;11.182;2022-11-23T02:08:47;0.40;;;0.10;;
55254;SDS011;41118;44.634;11.182;2022-11-23T02:11:14;0.52;;;0.10;;
55254;SDS011;41118;44.634;11.182;2022-11-23T02:13:41;0.60;;;0.10;;
55254;SDS011;41118;44.634;11.182;2022-11-23T02:16:08;1.27;;;0.22;;
55254;SDS011;41118;44.634;11.182;2022-11-23T02:18:34;2.85;;;0.20;;
55254;SDS011;41118;44.634;11.182;2022-11-23T02:21:00;0.52;;;0.10;;
55254;SDS011;41118;44.634;11.182;2022-11-23T02:25:57;0.90;;;0.20;;
55254;SDS011;41118;44.634;11.182;2022-11-23T02:28:26;0.98;;;0.20;;
55254;SDS011;41118;44.634;11.182;2022-11-23T02:30:54;1.00;;;0.38;;
55254;SDS011;41118;44.634;11.182;2022-11-23T02:33:20;3.05;;;0.25;;
55254;SDS011;41118;44.634;11.182;2022-11-23T02:35:47;2.50;;;0.28;;
55254;SDS011;41118;44.634;11.182;2022-11-23T02:38:14;1.17;;;0.20;;
55254;SDS011;41118;44.634;11.182;2022-11-23T02:40:40;0.47;;;0.10;;
55254;SDS011;41118;44.634;11.182;2022-11-23T02:43:07;0.73;;;0.20;;
55254;SDS011;41118;44.634;11.182;2022-11-23T02:45:38;0.55;;;0.20;;
55254;SDS011;41118;44.634;11.182;2022-11-23T02:48:05;0.68;;;0.17;;
55254;SDS011;41118;44.634;11.182;2022-11-23T02:50:31;0.45;;;0.13;;
55254;SDS011;41118;44.634;11.182;2022-11-23T02:52:57;1.52;;;0.10;;
55254;SDS011;41118;44.634;11.182;2022-11-23T02:55:24;0.80;;;0.20;;
55254;SDS011;41118;44.634;11.182;2022-11-23T02:57:50;0.60;;;0.20;;
55254;SDS011;41118;44.634;11.182;2022-11-23T03:00:16;0.68;;;0.13;;
55254;SDS011;41118;44.634;11.182;2022-11-23T03:02:42;2.15;;;0.40;;
55254;SDS011;41118;44.634;11.182;2022-11-23T03:05:09;0.73;;;0.20;;
55254;SDS011;41118;44.634;11.182;2022-11-23T03:07:35;1.33;;;0.30;;
55254;SDS011;41118;44.634;11.182;2022-11-23T03:10:01;0.95;;;0.22;;
55254;SDS011;41118;44.634;11.182;2022-11-23T03:12:27;1.90;;;0.50;;
55254;SDS011;41118;44.634;11.182;2022-11-23T03:14:53;0.80;;;0.20;;
55254;SDS011;41118;44.634;11.182;2022-11-23T03:17:19;0.70;;;0.20;;
55254;SDS011;41118;44.634;11.182;2022-11-23T03:19:45;1.10;;;0.30;;
55254;SDS011;41118;44.634;11.182;2022-11-23T03:22:12;1.20;;;0.10;;
55254;SDS011;41118;44.634;11.182;2022-11-23T03:24:38;0.90;;;0.13;;
55254;SDS011;41118;44.634;11.182;2022-11-23T03:27:04;0.80;;;0.13;;
55254;SDS011;41118;44.634;11.182;2022-11-23T03:29:30;0.38;;;0.10;;
55254;SDS011;41118;44.634;11.182;2022-11-23T03:31:56;2.97;;;0.20;;
55254;SDS011;41118;44.634;11.182;2022-11-23T03:34:23;0.95;;;0.10;;
55254;SDS011;41118;44.634;11.182;2022-11-23T03:36:49;0.75;;;0.20;;
55254;SDS011;41118;44.634;11.182;2022-11-23T03:39:15;0.65;;;0.10;;
55254;SDS011;41118;44.634;11.182;2022-11-23T03:41:41;0.60;;;0.10;;
55254;SDS011;41118;44.634;11.182;2022-11-23T03:44:08;0.35;;;0.10;;
55254;SDS011;41118;44.634;11.182;2022-11-23T03:46:34;0.22;;;0.00;;
55254;SDS011;41118;44.634;11.182;2022-11-23T03:49:00;0.30;;;0.08;;
55254;SDS011;41118;44.634;11.182;2022-11-23T03:51:26;0.43;;;0.10;;
55254;SDS011;41118;44.634;11.182;2022-11-23T03:53:52;0.68;;;0.10;;
55254;SDS011;41118;44.634;11.182;2022-11-23T03:56:18;1.73;;;0.00;;
55254;SDS011;41118;44.634;11.182;2022-11-23T03:58:44;0.60;;;0.10;;
55254;SDS011;41118;44.634;11.182;2022-11-23T04:01:10;0.03;;;0.00;;
55254;SDS011;41118;44.634;11.182;2022-11-23T04:03:36;0.38;;;0.00;;
55254;SDS011;41118;44.634;11.182;2022-11-23T04:06:02;0.45;;;0.00;;
55254;SDS011;41118;44.634;11.182;2022-11-23T04:08:29;0.25;;;0.00;;
55254;SDS011;41118;44.634;11.182;2022-11-23T04:10:55;0.50;;;0.00;;
55254;SDS011;41118;44.634;11.182;2022-11-23T04:13:22;0.80;;;0.10;;
55254;SDS011;41118;44.634;11.182;2022-11-23T04:15:48;0.70;;;0.10;;
55254;SDS011;41118;44.634;11.182;2022-11-23T04:18:14;0.40;;;0.00;;
55254;SDS011;41118;44.634;11.182;2022-11-23T04:20:41;0.85;;;0.10;;
55254;SDS011;41118;44.634;11.182;2022-11-23T04:23:07;0.30;;;0.00;;
55254;SDS011;41118;44.634;11.182;2022-11-23T04:25:33;0.50;;;0.10;;
55254;SDS011;41118;44.634;11.182;2022-11-23T04:28:00;2.10;;;0.10;;
55254;SDS011;41118;44.634;11.182;2022-11-23T04:30:26;0.73;;;0.20;;
55254;SDS011;41118;44.634;11.182;2022-11-23T04:32:52;0.90;;;0.10;;
55254;SDS011;41118;44.634;11.182;2022-11-23T04:35:18;1.10;;;0.10;;
55254;SDS011;41118;44.634;11.182;2022-11-23T04:37:45;1.27;;;0.20;;
55254;SDS011;41118;44.634;11.182;2022-11-23T04:40:12;1.33;;;0.13;;
55254;SDS011;41118;44.634;11.182;2022-11-23T04:42:38;0.88;;;0.13;;
55254;SDS011;41118;44.634;11.182;2022-11-23T04:45:05;0.43;;;0.10;;
55254;SDS011;41118;44.634;11.182;2022-11-23T04:47:32;0.88;;;0.10;;
55254;SDS011;41118;44.634;11.182;2022-11-23T04:49:58;1.15;;;0.10;;
55254;SDS011;41118;44.634;11.182;2022-11-23T04:52:24;0.60;;;0.10;;
55254;SDS011;41118;44.634;11.182;2022-11-23T04:54:50;0.68;;;0.32;;
55254;SDS011;41118;44.634;11.182;2022-11-23T04:57:17;0.60;;;0.10;;
55254;SDS011;41118;44.634;11.182;2022-11-23T04:59:43;0.70;;;0.20;;
55254;SDS011;41118;44.634;11.182;2022-11-23T05:02:09;0.50;;;0.10;;
55254;SDS011;41118;44.634;11.182;2022-11-23T05:04:35;0.30;;;0.00;;
55254;SDS011;41118;44.634;11.182;2022-11-23T05:07:01;0.98;;;0.10;;
55254;SDS011;41118;44.634;11.182;2022-11-23T05:09:27;0.75;;;0.10;;
55254;SDS011;41118;44.634;11.182;2022-11-23T05:11:55;0.40;;;0.10;;
55254;SDS011;41118;44.634;11.182;2022-11-23T05:14:22;0.50;;;0.10;;
55254;SDS011;41118;44.634;11.182;2022-11-23T05:16:48;2.63;;;0.10;;
55254;SDS011;41118;44.634;11.182;2022-11-23T05:19:14;1.15;;;0.15;;
55254;SDS011;41118;44.634;11.182;2022-11-23T05:21:40;0.98;;;0.10;;
55254;SDS011;41118;44.634;11.182;2022-11-23T05:24:07;1.52;;;0.10;;
55254;SDS011;41118;44.634;11.182;2022-11-23T05:26:33;0.20;;;0.10;;
55254;SDS011;41118;44.634;11.182;2022-11-23T05:28:59;2.38;;;0.10;;
55254;SDS011;41118;44.634;11.182;2022-11-23T05:31:25;0.63;;;0.10;;
55254;SDS011;41118;44.634;11.182;2022-11-23T05:33:51;0.60;;;0.10;;
55254;SDS011;41118;44.634;11.182;2022-11-23T05:36:17;0.70;;;0.10;;
55254;SDS011;41118;44.634;11.182;2022-11-23T05:38:43;0.60;;;0.10;;
55254;SDS011;41118;44.634;11.182;2022-11-23T05:41:10;0.90;;;0.20;;
55254;SDS011;41118;44.634;11.182;2022-11-23T05:43:36;0.68;;;0.20;;
55254;SDS011;41118;44.634;11.182;2022-11-23T05:46:02;0.75;;;0.10;;
55254;SDS011;41118;44.634;11.182;2022-11-23T05:48:28;0.70;;;0.10;;
55254;SDS011;41118;44.634;11.182;2022-11-23T05:50:54;0.20;;;0.10;;
55254;SDS011;41118;44.634;11.182;2022-11-23T05:53:20;5.05;;;0.10;;
55254;SDS011;41118;44.634;11.182;2022-11-23T05:55:47;0.40;;;0.00;;
55254;SDS011;41118;44.634;11.182;2022-11-23T05:58:13;0.60;;;0.10;;
55254;SDS011;41118;44.634;11.182;2022-11-23T06:00:39;2.28;;;0.10;;
55254;SDS011;41118;44.634;11.182;2022-11-23T06:03:05;1.40;;;0.10;;
55254;SDS011;41118;44.634;11.182;2022-11-23T06:05:32;0.68;;;0.00;;
55254;SDS011;41118;44.634;11.182;2022-11-23T06:07:58;0.22;;;0.00;;
55254;SDS011;41118;44.634;11.182;2022-11-23T06:10:25;0.20;;;0.10;;
55254;SDS011;41118;44.634;11.182;2022-11-23T06:12:51;0.40;;;0.10;;
55254;SDS011;41118;44.634;11.182;2022-11-23T06:15:17;1.45;;;0.10;;
55254;SDS011;41118;44.634;11.182;2022-11-23T06:17:43;0.57;;;0.10;;
55254;SDS011;41118;44.634;11.182;2022-11-23T06:20:09;0.52;;;0.10;;
55254;SDS011;41118;44.634;11.182;2022-11-23T06:22:35;1.48;;;0.10;;
55254;SDS011;41118;44.634;11.182;2022-11-23T06:25:02;1.23;;;0.13;;
55254;SDS011;41118;44.634;11.182;2022-11-23T06:27:28;3.00;;;0.13;;
55254;SDS011;41118;44.634;11.182;2022-11-23T06:29:54;0.30;;;0.10;;
55254;SDS011;41118;44.634;11.182;2022-11-23T06:32:20;4.70;;;0.20;;
55254;SDS011;41118;44.634;11.182;2022-11-23T06:34:46;2.25;;;0.10;;
55254;SDS011;41118;44.634;11.182;2022-11-23T06:37:12;0.40;;;0.10;;
55254;SDS011;41118;44.634;11.182;2022-11-23T06:39:38;0.47;;;0.10;;
55254;SDS011;41118;44.634;11.182;2022-11-23T06:42:04;0.30;;;0.00;;
55254;SDS011;41118;44.634;11.182;2022-11-23T06:44:30;0.43;;;0.10;;
55254;SDS011;41118;44.634;11.182;2022-11-23T06:46:56;1.13;;;0.10;;
55254;SDS011;41118;44.634;11.182;2022-11-23T06:49:22;0.38;;;0.10;;
55254;SDS011;41118;44.634;11.182;2022-11-23T06:51:49;2.00;;;0.10;;
55254;SDS011;41118;44.634;11.182;2022-11-23T06:54:15;1.00;;;0.10;;
55254;SDS011;41118;44.634;11.182;2022-11-23T06:56:42;0.82;;;0.10;;
55254;SDS011;41118;44.634;11.182;2022-11-23T06:59:08;0.90;;;0.10;;
55254;SDS011;41118;44.634;11.182;2022-11-23T07:01:34;0.75;;;0.10;;
55254;SDS011;41118;44.634;11.182;2022-11-23T07:04:00;0.40;;;0.10;;
55254;SDS011;41118;44.634;11.182;2022-11-23T07:06:26;0.40;;;0.00;;
55254;SDS011;41118;44.634;11.182;2022-11-23T07:08:53;0.50;;;0.10;;
55254;SDS011;41118;44.634;11.182;2022-11-23T07:11:19;0.30;;;0.00;;
55254;SDS011;41118;44.634;11.182;2022-11-23T07:13:46;1.17;;;0.10;;
55254;SDS011;41118;44.634;11.182;2022-11-23T07:16:12;0.43;;;0.10;;
55254;SDS011;41118;44.634;11.182;2022-11-23T07:18:38;1.23;;;0.10;;
55254;SDS011;41118;44.634;11.182;2022-11-23T07:21:05;1.35;;;0.10;;
55254;SDS011;41118;44.634;11.182;2022-11-23T07:23:31;0.60;;;0.10;;
55254;SDS011;41118;44.634;11.182;2022-11-23T07:25:57;0.60;;;0.10;;
55254;SDS011;41118;44.634;11.182;2022-11-23T07:28:23;0.40;;;0.10;;
55254;SDS011;41118;44.634;11.182;2022-11-23T07:30:49;0.77;;;0.10;;
55254;SDS011;41118;44.634;11.182;2022-11-23T07:33:16;2.40;;;0.13;;
55254;SDS011;41118;44.634;11.182;2022-11-23T07:35:42;0.30;;;0.03;;
55254;SDS011;41118;44.634;11.182;2022-11-23T07:38:08;0.57;;;0.10;;
55254;SDS011;41118;44.634;11.182;2022-11-23T07:40:37;1.70;;;0.10;;
55254;SDS011;41118;44.634;11.182;2022-11-23T07:43:04;0.70;;;0.00;;
55254;SDS011;41118;44.634;11.182;2022-11-23T07:45:31;0.30;;;0.10;;
55254;SDS011;41118;44.634;11.182;2022-11-23T07:48:00;1.65;;;0.00;;
55254;SDS011;41118;44.634;11.182;2022-11-23T07:50:26;2.65;;;0.10;;
55254;SDS011;41118;44.634;11.182;2022-11-23T07:52:53;0.20;;;0.00;;
55254;SDS011;41118;44.634;11.182;2022-11-23T07:55:20;0.88;;;0.05;;
55254;SDS011;41118;44.634;11.182;2022-11-23T07:57:46;0.90;;;0.10;;
55254;SDS011;41118;44.634;11.182;2022-11-23T08:00:16;0.28;;;0.10;;
55254;SDS011;41118;44.634;11.182;2022-11-23T08:02:44;0.10;;;0.00;;
55254;SDS011;41118;44.634;11.182;2022-11-23T08:05:10;0.50;;;0.05;;
55254;SDS011;41118;44.634;11.182;2022-11-23T08:07:36;0.32;;;0.00;;
55254;SDS011;41118;44.634;11.182;2022-11-23T08:10:02;0.47;;;0.10;;
55254;SDS011;41118;44.634;11.182;2022-11-23T08:12:29;2.03;;;0.00;;
55254;SDS011;41118;44.634;11.182;2022-11-23T08:14:55;1.02;;;0.03;;
55254;SDS011;41118;44.634;11.182;2022-11-23T08:17:22;0.45;;;0.10;;
55254;SDS011;41118;44.634;11.182;2022-11-23T08:19:48;2.85;;;0.10;;
55254;SDS011;41118;44.634;11.182;2022-11-23T08:22:13;0.22;;;0.00;;
55254;SDS011;41118;44.634;11.182;2022-11-23T08:24:40;0.13;;;0.00;;
55254;SDS011;41118;44.634;11.182;2022-11-23T08:27:06;0.20;;;0.00;;
55254;SDS011;41118;44.634;11.182;2022-11-23T08:29:33;1.60;;;0.10;;
55254;SDS011;41118;44.634;11.182;2022-11-23T08:31:59;0.35;;;0.10;;
55254;SDS011;41118;44.634;11.182;2022-11-23T08:34:25;1.30;;;0.20;;
55254;SDS011;41118;44.634;11.182;2022-11-23T08:36:51;0.88;;;0.10;;
55254;SDS011;41118;44.634;11.182;2022-11-23T08:39:18;1.98;;;0.10;;
55254;SDS011;41118;44.634;11.182;2022-11-23T08:41:44;0.63;;;0.05;;
55254;SDS011;41118;44.634;11.182;2022-11-23T08:44:10;0.47;;;0.10;;
55254;SDS011;41118;44.634;11.182;2022-11-23T08:46:36;1.60;;;0.20;;
55254;SDS011;41118;44.634;11.182;2022-11-23T08:49:03;0.82;;;0.10;;
55254;SDS011;41118;44.634;11.182;2022-11-23T08:51:29;0.80;;;0.25;;
55254;SDS011;41118;44.634;11.182;2022-11-23T08:53:56;2.72;;;0.35;;
55254;SDS011;41118;44.634;11.182;2022-11-23T08:56:22;1.60;;;0.80;;
55254;SDS011;41118;44.634;11.182;2022-11-23T08:58:48;3.05;;;1.15;;
55254;SDS011;41118;44.634;11.182;2022-11-23T09:01:15;1.00;;;0.22;;
55254;SDS011;41118;44.634;11.182;2022-11-23T09:03:43;2.00;;;0.52;;
55254;SDS011;41118;44.634;11.182;2022-11-23T09:06:09;5.72;;;1.48;;
55254;SDS011;41118;44.634;11.182;2022-11-23T09:08:35;3.90;;;0.60;;
55254;SDS011;41118;44.634;11.182;2022-11-23T09:11:02;2.58;;;0.45;;
55254;SDS011;41118;44.634;11.182;2022-11-23T09:13:29;15.25;;;3.30;;
55254;SDS011;41118;44.634;11.182;2022-11-23T09:15:56;11.38;;;3.38;;
55254;SDS011;41118;44.634;11.182;2022-11-23T09:18:22;2.63;;;0.32;;
55254;SDS011;41118;44.634;11.182;2022-11-23T09:20:48;1.27;;;0.30;;
55254;SDS011;41118;44.634;11.182;2022-11-23T09:23:14;10.38;;;1.13;;
55254;SDS011;41118;44.634;11.182;2022-11-23T09:25:41;5.05;;;1.15;;
55254;SDS011;41118;44.634;11.182;2022-11-23T09:28:11;4.85;;;1.08;;
55254;SDS011;41118;44.634;11.182;2022-11-23T09:30:38;1.77;;;0.40;;
55254;SDS011;41118;44.634;11.182;2022-11-23T09:33:05;5.00;;;1.38;;
55254;SDS011;41118;44.634;11.182;2022-11-23T09:35:32;3.70;;;0.90;;
55254;SDS011;41118;44.634;11.182;2022-11-23T09:37:58;1.77;;;0.47;;
55254;SDS011;41118;44.634;11.182;2022-11-23T09:40:27;7.13;;;0.70;;
55254;SDS011;41118;44.634;11.182;2022-11-23T09:45:43;4.78;;;1.23;;
55254;SDS011;41118;44.634;11.182;2022-11-23T09:50:46;5.90;;;1.90;;
55254;SDS011;41118;44.634;11.182;2022-11-23T09:53:15;11.05;;;2.05;;
55254;SDS011;41118;44.634;11.182;2022-11-23T09:55:43;11.82;;;1.73;;
55254;SDS011;41118;44.634;11.182;2022-11-23T09:58:15;3.78;;;0.93;;
55254;SDS011;41118;44.634;11.182;2022-11-23T10:01:01;8.18;;;1.88;;
55254;SDS011;41118;44.634;11.182;2022-11-23T10:03:29;5.45;;;0.77;;
55254;SDS011;41118;44.634;11.182;2022-11-23T10:13:33;14.70;;;3.15;;
55254;SDS011;41118;44.634;11.182;2022-11-23T10:26:36;4.25;;;2.45;;
55254;SDS011;41118;44.634;11.182;2022-11-23T10:31:39;3.60;;;0.50;;
55254;SDS011;41118;44.634;11.182;2022-11-23T10:34:10;4.05;;;0.70;;
55254;SDS011;41118;44.634;11.182;2022-11-23T10:36:37;4.47;;;1.20;;
55254;SDS011;41118;44.634;11.182;2022-11-23T10:39:23;14.68;;;4.82;;
55254;SDS011;41118;44.634;11.182;2022-11-23T10:41:50;10.15;;;1.95;;
55254;SDS011;41118;44.634;11.182;2022-11-23T10:46:43;3.30;;;0.73;;
55254;SDS011;41118;44.634;11.182;2022-11-23T10:49:20;7.60;;;2.45;;
55254;SDS011;41118;44.634;11.182;2022-11-23T10:51:53;11.23;;;3.72;;
55254;SDS011;41118;44.634;11.182;2022-11-23T10:54:21;4.97;;;1.48;;
55254;SDS011;41118;44.634;11.182;2022-11-23T10:56:47;10.15;;;1.83;;
55254;SDS011;41118;44.634;11.182;2022-11-23T11:02:00;9.13;;;2.30;;
55254;SDS011;41118;44.634;11.182;2022-11-23T11:04:26;11.63;;;1.75;;
55254;SDS011;41118;44.634;11.182;2022-11-23T11:06:59;14.98;;;4.32;;
55254;SDS011;41118;44.634;11.182;2022-11-23T11:09:34;5.97;;;1.10;;
55254;SDS011;41118;44.634;11.182;2022-11-23T11:12:00;12.18;;;3.00;;
55254;SDS011;41118;44.634;11.182;2022-11-23T11:14:27;6.13;;;1.50;;
55254;SDS011;41118;44.634;11.182;2022-11-23T11:16:56;10.73;;;1.58;;
55254;SDS011;41118;44.634;11.182;2022-11-23T11:19:32;3.72;;;0.50;;
55254;SDS011;41118;44.634;11.182;2022-11-23T11:24:44;4.78;;;1.13;;
55254;SDS011;41118;44.634;11.182;2022-11-23T11:27:16;3.40;;;0.45;;
55254;SDS011;41118;44.634;11.182;2022-11-23T11:32:53;4.35;;;0.40;;
55254;SDS011;41118;44.634;11.182;2022-11-23T11:40:07;3.75;;;1.35;;
55254;SDS011;41118;44.634;11.182;2022-11-23T11:42:41;2.70;;;0.50;;
55254;SDS011;41118;44.634;11.182;2022-11-23T11:47:38;1.23;;;0.30;;
55254;SDS011;41118;44.634;11.182;2022-11-23T11:50:14;5.07;;;0.90;;
55254;SDS011;41118;44.634;11.182;2022-11-23T11:52:44;8.48;;;1.50;;
55254;SDS011;41118;44.634;11.182;2022-11-23T11:55:14;4.28;;;1.48;;
55254;SDS011;41118;44.634;11.182;2022-11-23T11:57:44;2.78;;;0.50;;
55254;SDS011;41118;44.634;11.182;2022-11-23T12:00:13;4.90;;;1.85;;
55254;SDS011;41118;44.634;11.182;2022-11-23T12:05:19;1.00;;;0.20;;
55254;SDS011;41118;44.634;11.182;2022-11-23T12:13:09;1.33;;;0.40;;
55254;SDS011;41118;44.634;11.182;2022-11-23T12:15:38;0.63;;;0.10;;
55254;SDS011;41118;44.634;11.182;2022-11-23T12:18:18;1.30;;;0.20;;
55254;SDS011;41118;44.634;11.182;2022-11-23T12:28:47;0.77;;;0.10;;
55254;SDS011;41118;44.634;11.182;2022-11-23T12:31:37;0.40;;;0.10;;
55254;SDS011;41118;44.634;11.182;2022-11-23T12:34:12;0.98;;;0.20;;
55254;SDS011;41118;44.634;11.182;2022-11-23T12:42:11;0.60;;;0.20;;
55254;SDS011;41118;44.634;11.182;2022-11-23T12:45:05;0.80;;;0.20;;
55254;SDS011;41118;44.634;11.182;2022-11-23T12:47:44;0.90;;;0.20;;
55254;SDS011;41118;44.634;11.182;2022-11-23T12:52:44;0.80;;;0.20;;
55254;SDS011;41118;44.634;11.182;2022-11-23T12:55:24;1.10;;;0.20;;
55254;SDS011;41118;44.634;11.182;2022-11-23T12:57:55;1.45;;;0.20;;
55254;SDS011;41118;44.634;11.182;2022-11-23T13:00:23;1.30;;;0.40;;
55254;SDS011;41118;44.634;11.182;2022-11-23T13:10:44;0.63;;;0.20;;
55254;SDS011;41118;44.634;11.182;2022-11-23T13:23:46;1.25;;;0.50;;
55254;SDS011;41118;44.634;11.182;2022-11-23T13:28:41;1.02;;;0.13;;
55254;SDS011;41118;44.634;11.182;2022-11-23T13:33:39;1.10;;;0.25;;
55254;SDS011;41118;44.634;11.182;2022-11-23T13:36:09;1.33;;;0.20;;
55254;SDS011;41118;44.634;11.182;2022-11-23T13:38:42;2.25;;;0.20;;
55254;SDS011;41118;44.634;11.182;2022-11-23T13:43:53;0.77;;;0.20;;
55254;SDS011;41118;44.634;11.182;2022-11-23T13:46:22;2.42;;;0.20;;
55254;SDS011;41118;44.634;11.182;2022-11-23T13:48:52;2.47;;;0.28;;
55254;SDS011;41118;44.634;11.182;2022-11-23T13:51:22;1.17;;;0.20;;
55254;SDS011;41118;44.634;11.182;2022-11-23T13:53:50;1.55;;;0.47;;
55254;SDS011;41118;44.634;11.182;2022-11-23T13:56:22;2.17;;;0.30;;
55254;SDS011;41118;44.634;11.182;2022-11-23T13:58:54;1.08;;;0.20;;
55254;SDS011;41118;44.634;11.182;2022-11-23T14:04:19;1.65;;;0.28;;
55254;SDS011;41118;44.634;11.182;2022-11-23T14:06:46;0.85;;;0.22;;
55254;SDS011;41118;44.634;11.182;2022-11-23T14:22:27;0.90;;;0.20;;
55254;SDS011;41118;44.634;11.182;2022-11-23T14:27:29;3.80;;;0.30;;
55254;SDS011;41118;44.634;11.182;2022-11-23T14:37:59;1.38;;;0.65;;
55254;SDS011;41118;44.634;11.182;2022-11-23T14:40:31;1.80;;;0.20;;
55254;SDS011;41118;44.634;11.182;2022-11-23T14:43:03;1.00;;;0.30;;
55254;SDS011;41118;44.634;11.182;2022-11-23T14:45:30;1.30;;;0.38;;
55254;SDS011;41118;44.634;11.182;2022-11-23T14:48:18;1.58;;;0.25;;
55254;SDS011;41118;44.634;11.182;2022-11-23T14:50:47;1.60;;;0.30;;
55254;SDS011;41118;44.634;11.182;2022-11-23T14:53:18;1.05;;;0.20;;
55254;SDS011;41118;44.634;11.182;2022-11-23T14:55:46;1.60;;;0.20;;
55254;SDS011;41118;44.634;11.182;2022-11-23T14:58:12;0.88;;;0.20;;
55254;SDS011;41118;44.634;11.182;2022-11-23T15:00:40;3.33;;;0.22;;
55254;SDS011;41118;44.634;11.182;2022-11-23T15:03:13;1.40;;;0.30;;
55254;SDS011;41118;44.634;11.182;2022-11-23T15:05:41;2.10;;;0.30;;
55254;SDS011;41118;44.634;11.182;2022-11-23T15:08:10;1.23;;;0.25;;
55254;SDS011;41118;44.634;11.182;2022-11-23T15:10:51;1.73;;;0.30;;
55254;SDS011;41118;44.634;11.182;2022-11-23T15:13:20;2.83;;;0.40;;
55254;SDS011;41118;44.634;11.182;2022-11-23T15:15:48;1.08;;;0.30;;
55254;SDS011;41118;44.634;11.182;2022-11-23T15:18:25;1.92;;;0.40;;
55254;SDS011;41118;44.634;11.182;2022-11-23T15:20:51;3.22;;;0.30;;
55254;SDS011;41118;44.634;11.182;2022-11-23T15:23:21;0.90;;;0.20;;
55254;SDS011;41118;44.634;11.182;2022-11-23T15:25:54;1.83;;;0.50;;
55254;SDS011;41118;44.634;11.182;2022-11-23T15:28:23;1.30;;;0.20;;
55254;SDS011;41118;44.634;11.182;2022-11-23T15:30:50;1.35;;;0.50;;
55254;SDS011;41118;44.634;11.182;2022-11-23T15:33:17;1.48;;;0.80;;
55254;SDS011;41118;44.634;11.182;2022-11-23T15:35:44;3.85;;;0.43;;
55254;SDS011;41118;44.634;11.182;2022-11-23T15:38:11;3.03;;;0.60;;
55254;SDS011;41118;44.634;11.182;2022-11-23T15:40:38;3.28;;;0.45;;
55254;SDS011;41118;44.634;11.182;2022-11-23T15:43:10;5.93;;;0.82;;
55254;SDS011;41118;44.634;11.182;2022-11-23T15:48:22;6.22;;;0.40;;
55254;SDS011;41118;44.634;11.182;2022-11-23T15:50:55;9.73;;;1.52;;
55254;SDS011;41118;44.634;11.182;2022-11-23T15:53:32;3.38;;;0.50;;
55254;SDS011;41118;44.634;11.182;2022-11-23T15:56:02;1.60;;;0.40;;
55254;SDS011;41118;44.634;11.182;2022-11-23T15:58:28;3.20;;;0.65;;
55254;SDS011;41118;44.634;11.182;2022-11-23T16:00:58;3.97;;;0.57;;
55254;SDS011;41118;44.634;11.182;2022-11-23T16:03:28;3.60;;;0.60;;
55254;SDS011;41118;44.634;11.182;2022-11-23T16:06:08;5.85;;;0.45;;
55254;SDS011;41118;44.634;11.182;2022-11-23T16:08:39;4.28;;;0.80;;
55254;SDS011;41118;44.634;11.182;2022-11-23T16:13:44;5.07;;;0.77;;
55254;SDS011;41118;44.634;11.182;2022-11-23T16:16:19;7.35;;;1.15;;
55254;SDS011;41118;44.634;11.182;2022-11-23T16:18:47;3.90;;;0.47;;
55254;SDS011;41118;44.634;11.182;2022-11-23T16:21:20;5.50;;;0.80;;
55254;SDS011;41118;44.634;11.182;2022-11-23T16:23:50;2.38;;;0.50;;
55254;SDS011;41118;44.634;11.182;2022-11-23T16:26:18;2.58;;;0.73;;
55254;SDS011;41118;44.634;11.182;2022-11-23T16:28:52;2.70;;;0.80;;
55254;SDS011;41118;44.634;11.182;2022-11-23T16:31:29;3.58;;;0.55;;
55254;SDS011;41118;44.634;11.182;2022-11-23T16:33:55;4.75;;;0.75;;
55254;SDS011;41118;44.634;11.182;2022-11-23T16:36:22;3.70;;;0.90;;
55254;SDS011;41118;44.634;11.182;2022-11-23T16:38:47;7.00;;;0.50;;
55254;SDS011;41118;44.634;11.182;2022-11-23T16:41:14;3.25;;;0.80;;
55254;SDS011;41118;44.634;11.182;2022-11-23T16:43:40;4.32;;;0.90;;
55254;SDS011;41118;44.634;11.182;2022-11-23T16:46:07;4.47;;;0.70;;